Time;durP1;ratioP1;P1;durP2;ratioP2;P2;SDS_P1;SDS_P2;PMS_P1;PMS_P2;Temp;Humidity;BMP_temperature;BMP_pressure;BME280_temperature;BME280_humidity;BME280_pressure;Samples;Min_cycle;Max_cycle;Signal;HPM_P1;HPM_P2
2021/06/04 00:02:21;;;;;;;17.00;15.73;;;19.00;99.90;;;;;;4987474;28;20281;-66
2021/06/04 00:04:49;;;;;;;16.10;14.90;;;19.00;99.90;;;;;;4975245;28;20222;-66
2021/06/04 00:07:15;;;;;;;16.53;15.33;;;19.00;99.90;;;;;;4970698;28;21178;-67
2021/06/04 00:09:41;;;;;;;17.60;16.40;;;19.00;99.90;;;;;;4973418;28;20644;-67
2021/06/04 00:12:06;;;;;;;17.60;16.20;;;19.00;99.90;;;;;;4981608;28;20264;-67
2021/06/04 00:14:41;;;;;;;16.07;14.90;;;19.00;99.90;;;;;;4977172;28;20278;-67
2021/06/04 00:17:12;;;;;;;16.37;15.10;;;19.00;99.90;;;;;;4976729;28;20252;-66
2021/06/04 00:19:38;;;;;;;17.80;16.53;;;19.00;99.90;;;;;;4974426;28;20679;-66
2021/06/04 00:22:23;;;;;;;16.43;15.20;;;19.00;99.90;;;;;;4977570;28;21195;-67
2021/06/04 00:24:54;;;;;;;17.97;16.57;;;18.90;99.90;;;;;;4976999;28;20683;-66
2021/06/04 00:27:22;;;;;;;16.60;15.40;;;18.90;99.90;;;;;;4979773;28;20645;-67
2021/06/04 00:29:50;;;;;;;18.33;17.03;;;18.90;99.90;;;;;;4980887;28;21238;-66
2021/06/04 00:32:18;;;;;;;18.00;16.70;;;18.90;99.90;;;;;;4997919;28;20696;-66
2021/06/04 00:34:47;;;;;;;16.80;15.60;;;18.90;99.90;;;;;;4980015;28;20645;-67
2021/06/04 00:37:12;;;;;;;17.83;16.43;;;18.90;99.90;;;;;;4978368;28;20628;-66
2021/06/04 00:39:40;;;;;;;17.27;16.07;;;18.80;99.90;;;;;;4966807;28;21023;-66
2021/06/04 00:42:23;;;;;;;17.10;15.87;;;18.80;99.90;;;;;;4998561;28;20186;-66
2021/06/04 00:44:52;;;;;;;17.27;15.87;;;18.80;99.90;;;;;;4983157;28;20770;-66
2021/06/04 00:47:17;;;;;;;17.27;16.03;;;18.80;99.90;;;;;;4987211;28;20612;-67
2021/06/04 00:49:43;;;;;;;17.80;16.50;;;18.80;99.90;;;;;;4994077;28;20647;-66
2021/06/04 00:52:31;;;;;;;16.70;15.60;;;18.80;99.90;;;;;;4986957;28;20228;-66
2021/06/04 00:54:59;;;;;;;16.97;15.70;;;18.80;99.90;;;;;;4988342;28;20702;-65
2021/06/04 00:57:26;;;;;;;17.50;16.20;;;18.80;99.90;;;;;;4992885;28;20989;-66
2021/06/04 01:00:00;;;;;;;17.30;16.00;;;18.80;99.90;;;;;;4988428;28;20671;-66
2021/06/04 01:02:26;;;;;;;17.80;16.40;;;18.80;99.90;;;;;;4985541;28;20626;-67
2021/06/04 01:04:52;;;;;;;17.93;16.57;;;18.70;99.90;;;;;;4984191;28;20640;-67
2021/06/04 01:07:42;;;;;;;17.27;16.07;;;18.80;99.90;;;;;;4988318;28;20693;-67
2021/06/04 01:10:16;;;;;;;18.17;16.83;;;18.70;99.90;;;;;;4985105;28;20698;-67
2021/06/04 01:12:52;;;;;;;17.83;16.37;;;18.70;99.90;;;;;;4988029;28;20740;-66
2021/06/04 01:15:37;;;;;;;17.00;15.80;;;18.70;99.90;;;;;;4982828;28;20640;-66
2021/06/04 01:18:33;;;;;;;17.37;16.07;;;18.70;99.90;;;;;;4985583;28;20624;-67
2021/06/04 01:21:22;;;;;;;18.73;17.33;;;18.70;99.90;;;;;;4984006;28;20648;-66
2021/06/04 01:24:15;;;;;;;17.30;15.90;;;18.70;99.90;;;;;;4984150;28;20764;-67
2021/06/04 01:26:59;;;;;;;19.23;17.73;;;18.70;99.90;;;;;;4992612;28;21018;-66
2021/06/04 01:29:36;;;;;;;19.27;17.87;;;18.70;99.90;;;;;;4984727;28;20665;-66
2021/06/04 01:32:27;;;;;;;20.83;19.27;;;18.80;99.90;;;;;;4992786;28;20624;-66
2021/06/04 01:34:57;;;;;;;19.33;17.83;;;18.70;99.90;;;;;;4992217;28;20660;-67
2021/06/04 01:37:30;;;;;;;20.00;18.50;;;18.70;99.90;;;;;;4993351;28;20620;-66
2021/06/04 01:40:00;;;;;;;20.30;18.80;;;18.70;99.90;;;;;;4987678;28;20659;-66
2021/06/04 01:42:37;;;;;;;21.40;19.80;;;18.70;99.90;;;;;;4991342;28;21028;-66
2021/06/04 01:45:13;;;;;;;19.43;18.00;;;18.70;99.90;;;;;;4988154;28;21220;-66
2021/06/04 01:47:48;;;;;;;21.53;19.93;;;18.70;99.90;;;;;;4990156;28;20625;-66
2021/06/04 01:50:36;;;;;;;19.80;18.20;;;18.70;99.90;;;;;;4993547;28;20698;-66
2021/06/04 01:53:11;;;;;;;19.33;17.93;;;18.60;99.90;;;;;;4991996;28;20678;-66
2021/06/04 01:55:41;;;;;;;19.40;18.00;;;18.70;99.90;;;;;;4985303;28;21216;-66
2021/06/04 01:58:26;;;;;;;19.70;18.20;;;18.70;99.90;;;;;;4997070;28;20701;-67
2021/06/04 02:01:06;;;;;;;21.37;19.73;;;18.70;99.90;;;;;;4996067;28;20660;-66
2021/06/04 02:03:31;;;;;;;20.70;19.10;;;18.70;99.90;;;;;;4990062;28;20732;-66
2021/06/04 02:05:58;;;;;;;21.33;19.73;;;18.70;99.90;;;;;;4995832;28;20648;-66
2021/06/04 02:08:33;;;;;;;20.87;19.27;;;18.60;99.90;;;;;;4993902;28;20653;-66
2021/06/04 02:10:58;;;;;;;19.53;18.03;;;18.60;99.90;;;;;;4988062;28;20764;-66
2021/06/04 02:13:24;;;;;;;21.40;19.80;;;18.60;99.90;;;;;;4976950;28;21258;-66
2021/06/04 02:16:04;;;;;;;19.27;17.67;;;18.70;99.90;;;;;;4971607;28;20285;-66
2021/06/04 02:19:08;;;;;;;20.33;18.73;;;18.70;99.90;;;;;;4980961;28;20239;-66
2021/06/04 02:21:39;;;;;;;21.77;19.90;;;18.70;99.90;;;;;;4980568;28;20620;-65
2021/06/04 02:24:08;;;;;;;20.70;19.17;;;18.60;99.90;;;;;;4978129;28;20655;-65
2021/06/04 02:26:46;;;;;;;20.40;18.90;;;18.60;99.90;;;;;;4975250;28;20704;-66
2021/06/04 02:29:30;;;;;;;20.17;18.67;;;18.60;99.90;;;;;;4983194;28;20766;-66
2021/06/04 02:32:00;;;;;;;19.70;18.20;;;18.60;99.90;;;;;;4979337;28;20731;-66
2021/06/04 02:34:41;;;;;;;19.93;18.43;;;18.60;99.90;;;;;;4976173;28;20745;-66
2021/06/04 02:37:15;;;;;;;21.57;19.87;;;18.60;99.90;;;;;;4981188;28;20852;-66
2021/06/04 02:39:48;;;;;;;19.83;18.43;;;18.50;99.90;;;;;;4979552;28;21269;-66
2021/06/04 02:42:27;;;;;;;20.30;18.80;;;18.60;99.90;;;;;;4982323;28;20663;-66
2021/06/04 02:45:07;;;;;;;21.37;19.67;;;18.60;99.90;;;;;;4980136;28;21081;-66
2021/06/04 02:47:38;;;;;;;20.97;19.37;;;18.60;99.90;;;;;;4978754;28;20604;-66
2021/06/04 02:50:45;;;;;;;20.03;18.53;;;18.50;99.90;;;;;;4978751;28;21392;-66
2021/06/04 02:53:38;;;;;;;21.30;19.70;;;18.50;99.90;;;;;;4965685;28;21265;-66
2021/06/04 02:56:09;;;;;;;20.00;18.60;;;18.50;99.90;;;;;;4972838;28;20647;-66
2021/06/04 02:58:37;;;;;;;20.17;18.57;;;18.50;99.90;;;;;;4982587;28;20712;-66
2021/06/04 03:01:10;;;;;;;21.17;19.67;;;18.40;99.90;;;;;;4990318;28;20763;-66
2021/06/04 03:03:37;;;;;;;20.43;18.97;;;18.40;99.90;;;;;;4984297;28;20983;-65
2021/06/04 03:06:04;;;;;;;20.40;18.90;;;18.40;99.90;;;;;;4984266;28;20616;-66
2021/06/04 03:08:35;;;;;;;19.47;18.07;;;18.40;99.90;;;;;;4981583;28;20638;-66
2021/06/04 03:11:03;;;;;;;20.73;19.13;;;18.30;99.90;;;;;;4982396;28;20700;-66
2021/06/04 03:13:31;;;;;;;19.50;18.10;;;18.30;99.90;;;;;;4974550;28;20647;-66
2021/06/04 03:16:06;;;;;;;21.20;19.67;;;18.30;99.90;;;;;;4972146;28;20648;-65
2021/06/04 03:18:41;;;;;;;21.60;20.00;;;18.30;99.90;;;;;;4981134;28;20620;-64
2021/06/04 03:21:14;;;;;;;22.17;20.27;;;18.20;99.90;;;;;;4980105;28;20683;-65
2021/06/04 03:23:40;;;;;;;20.07;18.57;;;18.20;99.90;;;;;;4981729;28;20822;-64
2021/06/04 03:26:10;;;;;;;20.90;19.20;;;18.20;99.90;;;;;;4984975;28;20658;-64
2021/06/04 03:28:37;;;;;;;21.50;19.80;;;18.10;99.90;;;;;;4982378;28;20655;-64
2021/06/04 03:31:04;;;;;;;20.97;19.47;;;18.10;99.90;;;;;;4978828;28;20915;-65
2021/06/04 03:33:38;;;;;;;20.73;19.23;;;18.00;99.90;;;;;;4979365;28;20739;-64
2021/06/04 03:36:11;;;;;;;20.60;19.10;;;18.10;99.90;;;;;;4975268;28;20604;-64
2021/06/04 03:38:40;;;;;;;20.40;18.87;;;18.00;99.90;;;;;;4975512;28;20683;-64
2021/06/04 03:41:06;;;;;;;21.60;20.00;;;18.00;99.90;;;;;;4982706;28;20659;-65
2021/06/04 03:43:32;;;;;;;21.00;19.40;;;18.00;99.90;;;;;;4984431;28;21288;-65
2021/06/04 03:45:58;;;;;;;20.77;19.17;;;17.90;99.90;;;;;;4972313;28;20719;-64
2021/06/04 03:48:28;;;;;;;21.03;19.53;;;17.90;99.90;;;;;;4979296;28;20652;-64
2021/06/04 03:50:59;;;;;;;21.07;19.40;;;17.90;99.90;;;;;;4980501;28;21546;-65
2021/06/04 03:53:26;;;;;;;20.17;18.77;;;17.90;99.90;;;;;;4977221;28;20675;-64
2021/06/04 03:55:52;;;;;;;21.23;19.70;;;17.90;99.90;;;;;;4982403;28;20628;-65
2021/06/04 03:58:19;;;;;;;22.40;20.73;;;17.90;99.90;;;;;;4978784;28;20635;-65
2021/06/04 04:00:56;;;;;;;23.17;21.37;;;17.80;99.90;;;;;;4985512;28;20675;-65
2021/06/04 04:03:24;;;;;;;22.37;20.60;;;17.80;99.90;;;;;;4983630;28;21224;-63
2021/06/04 04:05:50;;;;;;;20.43;18.93;;;17.80;99.90;;;;;;4976288;28;20711;-65
2021/06/04 04:08:21;;;;;;;19.43;18.00;;;17.80;99.90;;;;;;4988079;28;20619;-64
2021/06/04 04:10:48;;;;;;;19.77;18.27;;;17.80;99.90;;;;;;4978295;28;20263;-64
2021/06/04 04:13:16;;;;;;;19.67;18.07;;;17.80;99.90;;;;;;4977218;28;20700;-64
2021/06/04 04:15:44;;;;;;;20.17;18.70;;;17.80;99.90;;;;;;4981848;28;20625;-65
2021/06/04 04:18:13;;;;;;;20.97;19.30;;;17.80;99.90;;;;;;4981981;28;20659;-65
2021/06/04 04:20:47;;;;;;;21.13;19.50;;;17.80;99.90;;;;;;4973929;28;20664;-63
2021/06/04 04:23:18;;;;;;;20.63;19.03;;;17.80;99.90;;;;;;4980346;28;20769;-65
2021/06/04 04:25:45;;;;;;;20.80;19.20;;;17.80;99.90;;;;;;4980847;28;20750;-63
2021/06/04 04:28:15;;;;;;;18.80;17.40;;;17.80;99.90;;;;;;4984295;28;20617;-64
2021/06/04 04:30:41;;;;;;;20.40;18.70;;;17.80;99.90;;;;;;4984701;28;21269;-63
2021/06/04 04:33:10;;;;;;;20.03;18.57;;;17.80;99.90;;;;;;4983540;28;20633;-63
2021/06/04 04:35:39;;;;;;;21.30;19.80;;;17.90;99.90;;;;;;4982841;28;20682;-62
2021/06/04 04:38:07;;;;;;;19.43;17.77;;;17.90;99.90;;;;;;4985342;28;20670;-63
2021/06/04 04:40:37;;;;;;;20.53;18.93;;;17.90;99.90;;;;;;4979858;28;20668;-64
2021/06/04 04:43:04;;;;;;;19.53;18.10;;;17.90;99.90;;;;;;4979955;28;20639;-64
2021/06/04 04:45:33;;;;;;;19.53;17.93;;;18.00;99.90;;;;;;4988418;28;20624;-64
2021/06/04 04:48:03;;;;;;;20.07;18.47;;;18.00;99.90;;;;;;4985487;28;20620;-63
2021/06/04 04:50:29;;;;;;;19.60;18.10;;;18.00;99.90;;;;;;4980082;28;20643;-64
2021/06/04 04:52:56;;;;;;;19.30;17.83;;;18.10;99.90;;;;;;4982519;28;20707;-64
2021/06/04 04:55:25;;;;;;;18.10;16.73;;;18.10;99.90;;;;;;4996919;28;72910;-63
2021/06/04 04:57:50;;;;;;;20.73;19.13;;;18.20;99.90;;;;;;4986671;28;20611;-62
2021/06/04 05:00:22;;;;;;;17.90;16.60;;;18.20;99.90;;;;;;5009219;28;20721;-64
2021/06/04 05:02:48;;;;;;;19.20;17.80;;;18.20;99.90;;;;;;5002507;28;20203;-65
2021/06/04 05:05:15;;;;;;;19.27;17.70;;;18.30;99.90;;;;;;5000098;28;20616;-64
2021/06/04 05:07:40;;;;;;;17.33;16.03;;;18.30;99.90;;;;;;5002396;28;20624;-63
2021/06/04 05:10:09;;;;;;;18.93;17.43;;;18.40;99.90;;;;;;4998230;28;20729;-64
2021/06/04 05:12:35;;;;;;;17.50;16.00;;;18.40;99.90;;;;;;4986344;28;20197;-65
2021/06/04 05:15:03;;;;;;;17.50;16.20;;;18.50;99.90;;;;;;4996814;28;23108;-64
2021/06/04 05:17:31;;;;;;;16.90;15.70;;;18.50;99.90;;;;;;4998355;28;21368;-64
2021/06/04 05:19:58;;;;;;;16.40;15.17;;;18.50;99.90;;;;;;5006763;28;20663;-64
2021/06/04 05:22:26;;;;;;;17.07;15.67;;;18.50;99.90;;;;;;5004088;28;20620;-65
2021/06/04 05:24:53;;;;;;;16.50;15.10;;;18.50;99.90;;;;;;5015342;28;21249;-65
2021/06/04 05:27:21;;;;;;;15.53;14.43;;;18.60;99.90;;;;;;5008894;28;20662;-64
2021/06/04 05:29:46;;;;;;;15.13;14.03;;;18.60;99.90;;;;;;5016194;28;20655;-64
2021/06/04 05:32:12;;;;;;;14.87;13.67;;;18.70;99.90;;;;;;4998677;28;20679;-65
2021/06/04 05:34:38;;;;;;;15.10;14.00;;;18.80;99.90;;;;;;4978596;28;20235;-65
2021/06/04 05:37:07;;;;;;;13.77;12.77;;;18.70;99.90;;;;;;4986565;28;20187;-64
2021/06/04 05:39:33;;;;;;;13.47;12.53;;;18.80;99.90;;;;;;5002597;28;20213;-64
2021/06/04 05:42:05;;;;;;;14.20;13.10;;;18.80;99.90;;;;;;4994591;28;20615;-64
2021/06/04 05:44:32;;;;;;;14.27;13.10;;;18.90;99.90;;;;;;4954529;28;20629;-62
2021/06/04 05:47:02;;;;;;;13.67;12.67;;;18.90;99.90;;;;;;4975722;28;20616;-63
2021/06/04 05:49:30;;;;;;;13.57;12.57;;;19.00;99.90;;;;;;4984129;28;20712;-65
2021/06/04 05:51:59;;;;;;;13.13;12.10;;;19.00;99.90;;;;;;4992058;28;20620;-65
2021/06/04 05:54:25;;;;;;;13.37;12.40;;;19.00;99.90;;;;;;4997345;28;23440;-64
2021/06/04 05:56:51;;;;;;;13.00;12.00;;;19.00;99.90;;;;;;5001459;28;20734;-63
2021/06/04 05:59:17;;;;;;;12.80;12.00;;;19.10;99.90;;;;;;4999058;28;20786;-63
2021/06/04 06:01:48;;;;;;;13.30;12.30;;;19.10;99.90;;;;;;5005407;28;20192;-64
2021/06/04 06:04:15;;;;;;;12.87;11.97;;;19.20;99.90;;;;;;4969426;28;20229;-62
2021/06/04 06:06:41;;;;;;;13.37;12.10;;;19.30;99.90;;;;;;4976310;28;20612;-62
2021/06/04 06:09:09;;;;;;;12.90;11.90;;;19.40;99.90;;;;;;4979622;28;20644;-66
2021/06/04 06:11:38;;;;;;;12.20;11.20;;;19.40;99.90;;;;;;4984486;28;20231;-64
2021/06/04 06:14:04;;;;;;;13.17;12.07;;;19.50;99.90;;;;;;4986902;28;20668;-64
2021/06/04 06:16:30;;;;;;;12.90;12.00;;;19.50;99.90;;;;;;4991458;28;21202;-65
2021/06/04 06:18:57;;;;;;;13.97;12.80;;;19.60;99.90;;;;;;4993584;28;20683;-64
2021/06/04 06:21:24;;;;;;;12.10;11.20;;;19.70;99.90;;;;;;4988799;28;20237;-63
2021/06/04 06:23:50;;;;;;;12.57;11.57;;;19.70;99.90;;;;;;4984027;28;20636;-65
2021/06/04 06:26:23;;;;;;;12.20;11.30;;;19.80;99.90;;;;;;4994139;28;20611;-63
2021/06/04 06:28:51;;;;;;;12.60;11.70;;;19.80;99.90;;;;;;5000597;28;20181;-64
2021/06/04 06:31:27;;;;;;;12.67;11.67;;;19.90;99.90;;;;;;4986565;28;20619;-64
2021/06/04 06:33:53;;;;;;;12.30;11.40;;;19.90;99.90;;;;;;4986604;28;20633;-64
2021/06/04 06:36:26;;;;;;;13.43;12.00;;;20.00;99.90;;;;;;4998161;28;21068;-63
2021/06/04 06:38:55;;;;;;;12.30;11.30;;;20.10;99.90;;;;;;5007251;28;20664;-65
2021/06/04 06:41:21;;;;;;;12.13;11.30;;;20.10;99.90;;;;;;4992451;28;20710;-63
2021/06/04 06:43:48;;;;;;;12.17;11.20;;;20.20;99.90;;;;;;4989474;28;20652;-64
2021/06/04 06:46:16;;;;;;;13.03;12.03;;;20.20;99.90;;;;;;4989547;28;20985;-66
2021/06/04 06:48:42;;;;;;;12.40;11.40;;;20.20;99.90;;;;;;4985181;28;20630;-64
2021/06/04 06:51:09;;;;;;;12.80;11.80;;;20.40;99.90;;;;;;4994071;28;20989;-65
2021/06/04 06:53:40;;;;;;;12.30;11.43;;;20.50;99.90;;;;;;4995213;28;20325;-63
2021/06/04 06:56:08;;;;;;;11.90;10.97;;;20.50;99.90;;;;;;4992938;28;20639;-65
2021/06/04 06:58:37;;;;;;;11.70;10.90;;;20.50;99.90;;;;;;4997350;28;20608;-64
2021/06/04 07:01:04;;;;;;;12.30;11.40;;;20.60;99.90;;;;;;5000747;28;20648;-66
2021/06/04 07:03:32;;;;;;;12.87;11.97;;;20.70;99.90;;;;;;4984227;28;20632;-64
2021/06/04 07:06:01;;;;;;;11.60;10.80;;;20.70;99.90;;;;;;5000765;28;20743;-65
2021/06/04 07:08:27;;;;;;;11.90;11.10;;;20.70;99.90;;;;;;5002581;28;20707;-64
2021/06/04 07:10:56;;;;;;;12.27;11.37;;;20.80;99.90;;;;;;5003247;28;20786;-64
2021/06/04 07:13:27;;;;;;;11.53;10.73;;;20.90;99.90;;;;;;5002628;28;20637;-64
2021/06/04 07:16:04;;;;;;;12.37;11.47;;;20.90;99.90;;;;;;4986771;28;20742;-65
2021/06/04 07:18:32;;;;;;;11.83;10.90;;;20.90;99.90;;;;;;4999334;28;20649;-64
2021/06/04 07:20:58;;;;;;;12.47;11.37;;;20.90;99.90;;;;;;5000000;28;20666;-64
2021/06/04 07:23:25;;;;;;;12.60;11.60;;;21.00;99.90;;;;;;4991390;28;20739;-64
2021/06/04 07:25:51;;;;;;;12.10;11.30;;;21.00;99.90;;;;;;4989472;28;20621;-66
2021/06/04 07:28:19;;;;;;;12.23;11.07;;;21.10;99.90;;;;;;5001002;28;20636;-65
2021/06/04 07:30:52;;;;;;;11.70;10.90;;;21.20;99.90;;;;;;4987681;28;20664;-64
2021/06/04 07:33:22;;;;;;;11.93;10.93;;;21.20;99.90;;;;;;4991540;28;20625;-64
2021/06/04 07:35:50;;;;;;;11.90;11.00;;;21.20;99.90;;;;;;4989156;28;21142;-65
2021/06/04 07:38:15;;;;;;;12.57;11.57;;;21.20;99.90;;;;;;4996256;28;20667;-64
2021/06/04 07:40:44;;;;;;;12.60;11.60;;;21.30;99.90;;;;;;5000828;28;21282;-65
2021/06/04 07:43:18;;;;;;;12.90;11.70;;;21.30;99.90;;;;;;4997653;28;21071;-64
2021/06/04 07:45:48;;;;;;;11.97;11.07;;;21.40;99.90;;;;;;5000562;28;20711;-65
2021/06/04 07:48:16;;;;;;;12.10;11.20;;;21.50;99.90;;;;;;4991621;28;20631;-64
2021/06/04 07:50:43;;;;;;;12.27;11.37;;;21.60;99.90;;;;;;4984098;28;20648;-63
2021/06/04 07:53:11;;;;;;;11.63;10.83;;;21.60;99.90;;;;;;4991714;28;20663;-63
2021/06/04 07:55:37;;;;;;;11.70;10.90;;;21.70;99.90;;;;;;4989828;28;20700;-63
2021/06/04 07:58:06;;;;;;;12.10;11.00;;;21.80;99.90;;;;;;4994506;28;20658;-64
2021/06/04 08:00:33;;;;;;;12.97;11.90;;;21.80;99.90;;;;;;4990011;28;20673;-65
2021/06/04 08:03:02;;;;;;;12.13;11.20;;;21.90;99.90;;;;;;4994810;28;20695;-64
2021/06/04 08:05:29;;;;;;;12.20;11.30;;;22.00;99.90;;;;;;4997911;28;20651;-64
2021/06/04 08:07:55;;;;;;;12.63;11.63;;;22.00;99.90;;;;;;4991471;28;20612;-64
2021/06/04 08:10:25;;;;;;;12.03;11.13;;;22.10;99.90;;;;;;5003789;28;21217;-64
2021/06/04 08:12:52;;;;;;;11.80;10.87;;;22.20;99.90;;;;;;4998985;28;20193;-64
2021/06/04 08:15:33;;;;;;;12.27;11.37;;;22.30;99.90;;;;;;4998070;28;20616;-64
2021/06/04 08:18:02;;;;;;;12.57;11.67;;;22.30;99.90;;;;;;4998290;28;20613;-64
2021/06/04 08:20:30;;;;;;;14.20;13.13;;;22.40;99.90;;;;;;4994694;28;20671;-65
2021/06/04 08:22:59;;;;;;;12.10;11.20;;;22.50;99.90;;;;;;5002121;28;20739;-64
2021/06/04 08:25:29;;;;;;;12.83;11.80;;;22.50;99.90;;;;;;4993268;28;20671;-66
2021/06/04 08:27:54;;;;;;;13.50;12.40;;;22.60;99.90;;;;;;4989836;28;20601;-64
2021/06/04 08:30:21;;;;;;;12.07;11.27;;;22.70;99.90;;;;;;4988928;28;20652;-63
2021/06/04 08:32:47;;;;;;;11.80;10.90;;;22.80;99.90;;;;;;4997058;28;20530;-66
2021/06/04 08:35:14;;;;;;;11.93;11.10;;;22.90;99.90;;;;;;4990796;28;20612;-65
2021/06/04 08:37:42;;;;;;;12.67;11.70;;;23.00;99.90;;;;;;4995263;28;21184;-65
2021/06/04 08:40:12;;;;;;;11.63;10.83;;;23.00;99.90;;;;;;4979995;28;20652;-65
2021/06/04 08:43:18;;;;;;;12.40;11.30;;;23.10;99.90;;;;;;4975464;28;20671;-64
2021/06/04 08:45:52;;;;;;;12.47;11.53;;;23.20;99.90;;;;;;4991730;28;20640;-63
2021/06/04 08:48:48;;;;;;;12.17;11.10;;;23.20;99.90;;;;;;4991871;28;20609;-65
2021/06/04 08:51:38;;;;;;;12.93;12.00;;;23.30;99.90;;;;;;4986119;28;20621;-65
2021/06/04 08:54:06;;;;;;;13.60;12.20;;;23.40;99.90;;;;;;4986767;28;20783;-65
2021/06/04 08:57:11;;;;;;;12.13;11.20;;;23.40;99.90;;;;;;4993384;28;20648;-64
2021/06/04 08:59:41;;;;;;;12.23;11.40;;;23.50;99.90;;;;;;4959222;28;20652;-64
2021/06/04 09:02:15;;;;;;;11.97;11.07;;;23.60;99.90;;;;;;4988677;28;24480;-64
2021/06/04 09:04:59;;;;;;;12.13;11.33;;;23.70;99.90;;;;;;4985136;28;20637;-64
2021/06/04 09:07:32;;;;;;;12.70;11.80;;;23.70;99.90;;;;;;4988923;28;21043;-64
2021/06/04 09:10:15;;;;;;;12.10;11.20;;;23.80;99.90;;;;;;4995046;28;20638;-65
2021/06/04 09:12:51;;;;;;;11.93;11.03;;;23.80;99.90;;;;;;4983223;28;20604;-65
2021/06/04 09:15:24;;;;;;;11.17;10.27;;;24.00;99.90;;;;;;5000364;28;21041;-64
2021/06/04 09:18:19;;;;;;;11.70;10.57;;;24.00;99.90;;;;;;4993166;28;20620;-65
2021/06/04 09:21:00;;;;;;;12.17;11.27;;;24.20;99.90;;;;;;4988895;28;20727;-65
2021/06/04 09:23:29;;;;;;;11.87;11.07;;;24.20;99.90;;;;;;4997339;28;20655;-64
2021/06/04 09:26:01;;;;;;;11.93;11.13;;;24.40;99.90;;;;;;4992927;28;20608;-64
2021/06/04 09:28:32;;;;;;;12.50;11.40;;;24.50;99.90;;;;;;4989423;28;20612;-67
2021/06/04 09:31:19;;;;;;;11.07;10.27;;;24.60;99.90;;;;;;4982992;28;20646;-64
2021/06/04 09:33:49;;;;;;;11.47;10.57;;;24.60;99.90;;;;;;4992003;28;20662;-65
2021/06/04 09:36:40;;;;;;;11.47;10.77;;;24.60;99.90;;;;;;5011798;28;20635;-65
2021/06/04 09:39:26;;;;;;;12.50;11.50;;;24.70;99.90;;;;;;5010995;28;20643;-65
2021/06/04 09:42:03;;;;;;;11.70;11.00;;;24.90;99.90;;;;;;5012979;28;21178;-65
2021/06/04 09:44:28;;;;;;;11.43;10.53;;;24.90;99.90;;;;;;4974786;28;20628;-65
2021/06/04 09:46:58;;;;;;;11.40;10.70;;;25.00;99.90;;;;;;4987332;28;20660;-64
2021/06/04 09:49:29;;;;;;;11.53;10.60;;;25.00;99.90;;;;;;4990876;28;20210;-66
2021/06/04 09:52:19;;;;;;;10.60;9.90;;;25.10;99.90;;;;;;4987323;28;20631;-65
2021/06/04 09:54:45;;;;;;;10.90;10.10;;;25.30;99.90;;;;;;4986613;28;20685;-65
2021/06/04 09:57:15;;;;;;;10.00;9.30;;;25.30;99.90;;;;;;4992592;28;21275;-65
2021/06/04 09:59:41;;;;;;;10.00;9.30;;;25.40;99.90;;;;;;4992831;28;20228;-64
2021/06/04 10:02:31;;;;;;;10.23;9.47;;;25.40;99.90;;;;;;4986377;28;20617;-65
2021/06/04 10:05:13;;;;;;;9.50;8.80;;;25.60;99.90;;;;;;4983480;28;21061;-64
2021/06/04 10:07:39;;;;;;;9.30;8.60;;;25.60;99.90;;;;;;4988803;28;20623;-64
2021/06/04 10:10:23;;;;;;;8.83;8.17;;;25.70;99.90;;;;;;4990312;28;21247;-64
2021/06/04 10:12:57;;;;;;;10.13;9.43;;;25.80;99.90;;;;;;4986072;28;20609;-65
2021/06/04 10:15:27;;;;;;;8.47;7.87;;;25.80;99.90;;;;;;4989769;28;21049;-64
2021/06/04 10:20:36;;;;;;;7.33;6.83;;;25.90;99.90;;;;;;5000755;28;20666;-65
2021/06/04 10:23:15;;;;;;;7.43;6.83;;;26.00;99.90;;;;;;4997681;28;20615;-65
2021/06/04 10:25:48;;;;;;;6.67;6.17;;;26.00;99.90;;;;;;4971922;28;20624;-65
2021/06/04 10:28:39;;;;;;;7.60;7.00;;;26.00;99.90;;;;;;4993250;28;20616;-65
2021/06/04 10:31:17;;;;;;;7.30;6.77;;;26.00;99.90;;;;;;4992380;28;20624;-65
2021/06/04 10:34:02;;;;;;;8.13;7.63;;;26.10;99.90;;;;;;4992886;28;20628;-65
2021/06/04 10:36:32;;;;;;;7.70;7.10;;;26.10;99.90;;;;;;4988036;28;20674;-64
2021/06/04 10:39:10;;;;;;;7.13;6.53;;;26.20;99.90;;;;;;4987276;28;20653;-65
2021/06/04 10:42:09;;;;;;;7.90;7.40;;;26.40;99.90;;;;;;4980616;28;20695;-65
2021/06/04 10:44:48;;;;;;;8.10;7.60;;;26.50;99.90;;;;;;4999280;28;20636;-65
2021/06/04 10:47:42;;;;;;;7.60;7.03;;;26.60;99.90;;;;;;5018446;28;21245;-64
2021/06/04 10:50:19;;;;;;;8.23;7.60;;;26.80;99.90;;;;;;4996031;28;20659;-65
2021/06/04 10:53:16;;;;;;;7.77;7.33;;;26.90;99.90;;;;;;4988284;28;21443;-65
2021/06/04 10:55:58;;;;;;;8.37;7.87;;;27.00;99.90;;;;;;4938634;28;21368;-65
2021/06/04 10:59:10;;;;;;;8.50;7.93;;;27.10;99.90;;;;;;4993661;28;20973;-65
2021/06/04 11:01:44;;;;;;;8.07;7.43;;;27.30;99.90;;;;;;4999280;28;20725;-65
2021/06/04 11:04:36;;;;;;;7.73;7.20;;;27.40;99.90;;;;;;4993807;28;20648;-65
2021/06/04 11:07:18;;;;;;;7.30;6.80;;;27.40;99.90;;;;;;4999016;28;20616;-65
2021/06/04 11:10:00;;;;;;;7.30;6.80;;;27.50;99.90;;;;;;4989254;28;20691;-65
2021/06/04 11:12:56;;;;;;;7.77;7.17;;;27.50;99.90;;;;;;4987140;28;20696;-64
2021/06/04 11:15:35;;;;;;;7.80;7.10;;;27.50;99.90;;;;;;5000891;28;20648;-65
2021/06/04 11:18:15;;;;;;;6.97;6.47;;;27.50;99.90;;;;;;4992444;28;20716;-64
2021/06/04 11:20:49;;;;;;;7.53;6.90;;;27.50;99.90;;;;;;4975805;28;20668;-64
2021/06/04 11:23:29;;;;;;;7.73;6.90;;;27.60;99.90;;;;;;4991701;28;21077;-65
2021/06/04 11:26:06;;;;;;;7.50;7.10;;;27.70;99.90;;;;;;4995611;28;20616;-65
2021/06/04 11:28:41;;;;;;;7.40;7.00;;;27.80;99.90;;;;;;4983491;28;20670;-65
2021/06/04 11:31:19;;;;;;;7.30;6.70;;;27.90;99.90;;;;;;4981317;28;20626;-65
2021/06/04 11:33:50;;;;;;;7.47;6.97;;;28.00;99.90;;;;;;4991462;28;20739;-64
2021/06/04 11:36:23;;;;;;;7.40;6.90;;;28.00;99.90;;;;;;4993937;28;20719;-64
2021/06/04 11:38:50;;;;;;;7.40;6.80;;;28.10;99.90;;;;;;4993376;28;20651;-65
2021/06/04 11:41:25;;;;;;;6.13;5.53;;;28.10;99.90;;;;;;4977116;28;20656;-65
2021/06/04 11:44:02;;;;;;;6.40;5.90;;;28.20;99.90;;;;;;4986436;28;20710;-65
2021/06/04 11:46:33;;;;;;;6.97;6.57;;;28.30;99.90;;;;;;4981639;28;20846;-64
2021/06/04 11:49:12;;;;;;;6.57;6.07;;;28.40;99.90;;;;;;4993383;28;21149;-65
2021/06/04 11:51:48;;;;;;;7.37;6.77;;;28.50;99.90;;;;;;5011099;28;20617;-64
2021/06/04 11:56:50;;;;;;;6.93;6.53;;;28.90;99.90;;;;;;4968218;22;20723;-67
2021/06/04 11:59:49;;;;;;;7.73;7.20;;;29.00;99.90;;;;;;4992847;28;20733;-67
2021/06/04 12:02:32;;;;;;;9.00;8.10;;;29.00;99.90;;;;;;4993057;28;20593;-67
2021/06/04 12:05:17;;;;;;;8.23;7.73;;;29.10;99.90;;;;;;4994276;28;20644;-66
2021/06/04 12:08:03;;;;;;;7.50;7.00;;;29.20;99.90;;;;;;4977693;28;20622;-66
2021/06/04 12:10:49;;;;;;;7.13;6.63;;;29.20;99.90;;;;;;4982609;28;20888;-66
2021/06/04 12:13:33;;;;;;;7.53;7.03;;;29.30;99.90;;;;;;4988823;28;21242;-67
2021/06/04 12:16:28;;;;;;;7.50;7.00;;;29.30;99.90;;;;;;4981032;28;20612;-69
2021/06/04 12:19:17;;;;;;;7.97;7.47;;;29.50;99.90;;;;;;4987183;28;20625;-70
2021/06/04 12:21:43;;;;;;;7.70;7.20;;;29.60;99.90;;;;;;4990344;28;20790;-68
2021/06/04 12:24:20;;;;;;;8.03;7.53;;;29.70;99.90;;;;;;4991764;28;20672;-68
2021/06/04 12:26:52;;;;;;;7.53;7.03;;;29.80;99.90;;;;;;4986190;28;20653;-68
2021/06/04 12:29:21;;;;;;;7.57;7.07;;;29.80;99.90;;;;;;4979257;28;20644;-69
2021/06/04 12:31:53;;;;;;;8.20;7.60;;;30.00;99.90;;;;;;4979771;28;21063;-69
2021/06/04 12:34:37;;;;;;;8.47;7.90;;;30.00;99.90;;;;;;4987458;28;21234;-69
2021/06/04 12:37:08;;;;;;;8.47;7.87;;;30.00;99.90;;;;;;4981273;28;20813;-70
2021/06/04 12:39:52;;;;;;;7.77;7.17;;;29.90;99.90;;;;;;4982320;28;20652;-69
2021/06/04 12:42:18;;;;;;;8.50;8.00;;;29.80;99.90;;;;;;4983917;28;21234;-70
2021/06/04 12:45:14;;;;;;;8.27;7.77;;;29.70;99.90;;;;;;4992433;28;20652;-69
2021/06/04 12:47:57;;;;;;;7.57;7.13;;;29.70;99.90;;;;;;4988442;28;20354;-70
2021/06/04 12:50:42;;;;;;;8.27;7.60;;;29.70;99.90;;;;;;4995556;28;20747;-70
2021/06/04 12:53:25;;;;;;;8.47;7.90;;;29.60;99.90;;;;;;4986851;28;20699;-70
2021/06/04 12:56:16;;;;;;;7.97;7.47;;;29.50;99.90;;;;;;4991374;28;20627;-70
2021/06/04 12:58:49;;;;;;;8.43;7.93;;;29.40;99.90;;;;;;4980555;28;20633;-72
2021/06/04 13:01:23;;;;;;;8.87;8.37;;;29.40;99.90;;;;;;4988644;28;20824;-70
2021/06/04 13:03:49;;;;;;;9.17;8.47;;;29.30;99.90;;;;;;4987114;28;20685;-68
2021/06/04 13:06:24;;;;;;;8.83;8.13;;;29.30;99.90;;;;;;4992697;28;20707;-69
2021/06/04 13:08:50;;;;;;;8.93;8.33;;;29.20;99.90;;;;;;4987951;28;20636;-70